createdAt,value
2023-05-09T00:00:47.886Z,14.69
2023-05-09T00:03:34.178Z,14.65
2023-05-09T00:06:19.221Z,14.70
2023-05-09T00:09:04.976Z,14.65
2023-05-09T00:11:50.219Z,14.51
2023-05-09T00:14:35.609Z,14.67
2023-05-09T00:17:21.146Z,14.73
2023-05-09T00:20:09.335Z,14.59
2023-05-09T00:22:54.892Z,14.61
2023-05-09T00:25:39.796Z,14.66
2023-05-09T00:28:25.161Z,14.65
2023-05-09T00:31:10.059Z,14.57
2023-05-09T00:33:54.883Z,14.62
2023-05-09T00:36:40.174Z,14.45
2023-05-09T00:39:25.339Z,14.40
2023-05-09T00:42:10.506Z,14.38
2023-05-09T00:44:55.862Z,14.40
2023-05-09T00:47:41.398Z,14.35
2023-05-09T00:50:26.626Z,14.38
2023-05-09T00:53:12.480Z,14.26
2023-05-09T00:55:58.104Z,14.37
2023-05-09T00:58:43.971Z,14.34
2023-05-09T01:01:29.264Z,14.22
2023-05-09T01:04:15.267Z,14.16
2023-05-09T01:07:16.754Z,14.13
2023-05-09T01:10:08.469Z,14.24
2023-05-09T01:13:19.159Z,14.30
2023-05-09T01:16:16.430Z,14.06
2023-05-09T01:19:36.502Z,14.04
2023-05-09T01:22:29.896Z,14.07
2023-05-09T01:25:20.831Z,14.02
2023-05-09T01:28:05.649Z,13.93
2023-05-09T01:30:53.313Z,13.92
2023-05-09T01:33:42.471Z,13.98
2023-05-09T01:36:31.901Z,14.00
2023-05-09T01:39:19.192Z,13.94
2023-05-09T01:42:08.439Z,13.86
2023-05-09T01:44:54.656Z,13.80
2023-05-09T01:47:41.657Z,13.79
2023-05-09T01:50:29.557Z,13.75
2023-05-09T01:53:17.231Z,13.77
2023-05-09T01:56:04.274Z,13.63
2023-05-09T01:58:51.702Z,13.61
2023-05-09T02:01:37.535Z,13.51
2023-05-09T02:04:23.861Z,13.51
2023-05-09T02:07:10.715Z,13.47
2023-05-09T02:09:57.405Z,13.47
2023-05-09T02:12:42.403Z,13.49
2023-05-09T02:15:29.473Z,13.58
2023-05-09T02:18:14.585Z,13.48
2023-05-09T02:21:00.362Z,13.42
2023-05-09T02:23:45.493Z,13.35
2023-05-09T02:26:31.028Z,13.37
2023-05-09T02:29:20.383Z,13.36
2023-05-09T02:32:12.227Z,13.26
2023-05-09T02:34:58.932Z,13.36
2023-05-09T02:37:45.643Z,13.16
2023-05-09T02:40:31.085Z,13.27
2023-05-09T02:43:16.764Z,13.21
2023-05-09T02:46:02.010Z,13.20
2023-05-09T02:48:47.505Z,13.10
2023-05-09T02:51:32.815Z,12.99
2023-05-09T02:54:18.164Z,13.07
2023-05-09T02:57:03.956Z,13.05
2023-05-09T02:59:49.006Z,12.98
2023-05-09T03:02:34.520Z,13.05
2023-05-09T03:05:19.874Z,12.91
2023-05-09T03:08:05.575Z,12.95
2023-05-09T03:10:50.822Z,13.05
2023-05-09T03:13:36.076Z,12.93
2023-05-09T03:16:21.100Z,12.97
2023-05-09T03:19:06.293Z,12.96
2023-05-09T03:21:51.182Z,12.95
2023-05-09T03:24:36.007Z,12.97
2023-05-09T03:27:21.402Z,12.98
2023-05-09T03:30:06.992Z,12.97
2023-05-09T03:32:52.151Z,12.93
2023-05-09T03:35:37.485Z,12.93
2023-05-09T03:38:22.910Z,12.83
2023-05-09T03:41:08.237Z,12.81
2023-05-09T03:43:53.543Z,12.85
2023-05-09T03:46:38.631Z,12.79
2023-05-09T03:49:24.110Z,12.73
2023-05-09T03:52:09.443Z,12.90
2023-05-09T03:54:54.898Z,12.79
2023-05-09T03:57:40.281Z,12.77
2023-05-09T04:00:25.175Z,12.85
2023-05-09T04:03:10.921Z,12.88
2023-05-09T04:05:56.404Z,12.86
2023-05-09T04:08:42.069Z,12.86
2023-05-09T04:11:27.151Z,12.88
2023-05-09T04:14:12.650Z,12.85
2023-05-09T04:16:57.684Z,12.98
2023-05-09T04:19:42.956Z,13.12
2023-05-09T04:22:28.489Z,13.08
2023-05-09T04:25:13.999Z,13.05
2023-05-09T04:27:59.213Z,13.11
2023-05-09T04:30:44.475Z,13.12
2023-05-09T04:33:29.821Z,13.12
2023-05-09T04:36:14.720Z,13.08
2023-05-09T04:39:00.171Z,13.11
2023-05-09T04:41:45.847Z,13.28
2023-05-09T04:44:31.074Z,13.18
2023-05-09T04:47:16.320Z,13.24
2023-05-09T04:50:01.186Z,13.33
2023-05-09T04:52:46.074Z,13.42
2023-05-09T04:55:31.512Z,13.44
2023-05-09T04:58:16.922Z,13.48
2023-05-09T05:01:01.844Z,13.49
2023-05-09T05:03:47.130Z,13.57
2023-05-09T05:06:32.197Z,13.63
2023-05-09T05:09:17.609Z,13.59
2023-05-09T05:12:04.234Z,13.78
2023-05-09T05:14:50.736Z,13.75
2023-05-09T05:17:36.315Z,13.96
2023-05-09T05:20:21.528Z,14.10
2023-05-09T05:23:06.938Z,14.28
2023-05-09T05:25:52.072Z,14.30
2023-05-09T05:28:37.673Z,14.37
2023-05-09T05:31:22.970Z,14.43
2023-05-09T05:34:08.654Z,14.56
2023-05-09T05:36:53.953Z,14.64
2023-05-09T05:39:39.539Z,14.77
2023-05-09T05:42:24.792Z,14.91
2023-05-09T05:45:10.529Z,15.01
2023-05-09T05:47:55.368Z,15.14
2023-05-09T05:50:40.698Z,15.14
2023-05-09T05:53:25.970Z,15.19
2023-05-09T05:56:11.313Z,15.19
2023-05-09T05:58:56.841Z,15.46
2023-05-09T06:01:43.695Z,15.47
2023-05-09T06:04:31.685Z,15.62
2023-05-09T06:07:18.713Z,15.53
2023-05-09T06:10:04.211Z,15.48
2023-05-09T06:12:49.105Z,15.56
2023-05-09T06:15:34.614Z,15.54
2023-05-09T06:18:19.964Z,15.71
2023-05-09T06:21:05.579Z,15.71
2023-05-09T06:24:01.986Z,15.67
2023-05-09T06:26:53.068Z,15.67
2023-05-09T06:29:38.612Z,15.87
2023-05-09T06:32:23.829Z,15.89
2023-05-09T06:35:09.416Z,15.88
2023-05-09T06:37:54.702Z,16.13
2023-05-09T06:40:39.988Z,16.44
2023-05-09T06:43:25.418Z,16.23
2023-05-09T06:46:11.248Z,16.39
2023-05-09T06:48:56.615Z,16.64
2023-05-09T06:51:42.097Z,16.83
2023-05-09T06:54:27.400Z,16.83
2023-05-09T06:57:12.951Z,16.84
2023-05-09T06:59:58.385Z,16.95
2023-05-09T07:02:43.856Z,16.98
2023-05-09T07:05:29.289Z,17.02
2023-05-09T07:08:14.740Z,16.91
2023-05-09T07:11:00.198Z,16.90
2023-05-09T07:13:45.436Z,17.02
2023-05-09T07:16:31.057Z,17.32
2023-05-09T07:19:16.406Z,17.26
2023-05-09T07:22:01.605Z,17.45
2023-05-09T07:24:46.496Z,17.58
2023-05-09T07:27:31.837Z,17.73
2023-05-09T07:30:17.579Z,17.41
2023-05-09T07:33:03.408Z,17.22
2023-05-09T07:35:49.086Z,17.12
2023-05-09T07:38:34.241Z,17.08
2023-05-09T07:41:19.829Z,17.18
2023-05-09T07:44:05.159Z,17.20
2023-05-09T07:46:50.299Z,17.12
2023-05-09T07:49:35.726Z,16.99
2023-05-09T07:52:20.668Z,17.14
2023-05-09T07:55:06.141Z,17.25
2023-05-09T07:57:51.306Z,17.31
2023-05-09T08:00:36.767Z,17.26
2023-05-09T08:03:22.325Z,17.18
2023-05-09T08:06:07.734Z,17.16
2023-05-09T08:08:52.820Z,17.28
2023-05-09T08:11:38.414Z,17.36
2023-05-09T08:14:23.907Z,17.64
2023-05-09T08:17:09.353Z,17.64
2023-05-09T08:19:54.611Z,17.45
2023-05-09T08:22:40.431Z,17.44
2023-05-09T08:25:25.677Z,17.35
2023-05-09T08:28:11.047Z,17.25
2023-05-09T08:30:56.488Z,17.29
2023-05-09T08:33:42.121Z,17.15
2023-05-09T08:36:27.305Z,17.26
2023-05-09T08:39:12.752Z,17.38
2023-05-09T08:41:59.957Z,17.37
2023-05-09T08:44:45.445Z,17.45
2023-05-09T08:47:30.439Z,17.66
2023-05-09T08:50:16.976Z,17.96
2023-05-09T08:53:02.875Z,17.83
2023-05-09T08:55:51.648Z,17.78
2023-05-09T08:58:37.215Z,17.90
2023-05-09T09:01:22.525Z,17.99
2023-05-09T09:04:08.449Z,18.29
2023-05-09T09:06:54.183Z,18.42
2023-05-09T09:09:44.771Z,18.56
2023-05-09T09:12:31.075Z,18.67
2023-05-09T09:15:19.885Z,18.91
2023-05-09T09:18:07.992Z,19.11
2023-05-09T09:20:57.796Z,19.27
2023-05-09T09:23:45.373Z,19.20
2023-05-09T09:26:30.570Z,19.23
2023-05-09T09:29:17.813Z,19.18
2023-05-09T09:32:05.839Z,19.07
2023-05-09T09:34:50.895Z,18.95
2023-05-09T09:37:37.498Z,18.95
2023-05-09T09:40:24.258Z,19.09
2023-05-09T09:43:09.613Z,19.16
2023-05-09T09:45:55.232Z,18.93
2023-05-09T09:48:40.093Z,19.17
2023-05-09T09:51:27.372Z,18.91
2023-05-09T09:54:12.940Z,18.99
2023-05-09T09:56:58.316Z,18.57
2023-05-09T09:59:58.166Z,18.61
2023-05-09T10:02:56.933Z,18.52
2023-05-09T10:05:42.431Z,18.52
2023-05-09T10:08:27.447Z,18.57
2023-05-09T10:11:13.601Z,18.87
2023-05-09T10:13:58.634Z,19.08
2023-05-09T10:16:44.846Z,18.99
2023-05-09T10:19:30.746Z,19.02
2023-05-09T10:22:18.054Z,19.15
2023-05-09T10:25:05.713Z,19.47
2023-05-09T10:27:55.748Z,19.42
2023-05-09T10:31:01.040Z,19.87
2023-05-09T10:33:48.387Z,20.10
2023-05-09T10:36:33.548Z,20.51
2023-05-09T10:39:19.291Z,20.88
2023-05-09T10:42:05.353Z,21.22
2023-05-09T10:44:52.346Z,20.68
2023-05-09T10:47:42.198Z,20.51
2023-05-09T10:50:27.635Z,20.25
2023-05-09T10:53:13.042Z,19.95
2023-05-09T10:55:58.484Z,19.93
2023-05-09T10:58:47.831Z,20.17
2023-05-09T11:01:33.925Z,19.93
2023-05-09T11:04:18.999Z,19.94
2023-05-09T11:07:22.282Z,20.06
2023-05-09T11:10:18.297Z,20.21
2023-05-09T11:13:03.241Z,20.07
2023-05-09T11:16:01.073Z,19.84
2023-05-09T11:18:51.642Z,19.56
2023-05-09T11:21:37.039Z,19.78
2023-05-09T11:24:22.629Z,19.99
2023-05-09T11:27:26.264Z,19.87
2023-05-09T11:30:13.442Z,19.63
2023-05-09T11:32:59.156Z,19.41
2023-05-09T11:35:44.557Z,19.31
2023-05-09T11:38:41.277Z,19.11
2023-05-09T11:41:27.192Z,19.03
2023-05-09T11:44:16.968Z,19.08
2023-05-09T11:47:02.321Z,19.13
2023-05-09T11:49:50.437Z,19.14
2023-05-09T11:52:36.597Z,19.24
2023-05-09T11:55:28.025Z,19.38
2023-05-09T11:58:13.442Z,19.55
2023-05-09T12:00:59.026Z,19.81
2023-05-09T12:03:45.278Z,20.08
2023-05-09T12:06:30.908Z,20.24
2023-05-09T12:09:16.255Z,20.40
2023-05-09T12:12:01.514Z,20.35
2023-05-09T12:14:48.383Z,20.36
2023-05-09T12:17:35.221Z,20.27
2023-05-09T12:20:20.741Z,20.32
2023-05-09T12:23:06.806Z,20.52
2023-05-09T12:25:56.726Z,20.38
2023-05-09T12:28:42.527Z,20.54
2023-05-09T12:31:28.209Z,20.56
2023-05-09T12:34:13.493Z,20.52
2023-05-09T12:36:58.787Z,20.70
2023-05-09T12:40:06.130Z,20.50
2023-05-09T12:42:51.311Z,20.65
2023-05-09T12:45:38.898Z,20.88
2023-05-09T12:48:24.807Z,21.20
2023-05-09T12:51:10.373Z,21.28
2023-05-09T12:54:02.264Z,21.35
2023-05-09T12:56:47.405Z,21.38
2023-05-09T12:59:32.585Z,21.10
2023-05-09T13:02:18.069Z,21.11
2023-05-09T13:05:10.890Z,21.20
2023-05-09T13:07:56.831Z,21.01
2023-05-09T13:10:42.239Z,20.96
2023-05-09T13:13:27.869Z,21.18
2023-05-09T13:16:15.776Z,21.21
2023-05-09T13:19:02.485Z,21.22
2023-05-09T13:21:47.960Z,21.30
2023-05-09T13:24:33.212Z,20.78
2023-05-09T13:27:18.541Z,20.70
2023-05-09T13:30:05.048Z,20.57
2023-05-09T13:32:50.104Z,20.47
2023-05-09T13:35:35.245Z,19.85
2023-05-09T13:38:20.564Z,19.70
2023-05-09T13:41:06.566Z,19.41
2023-05-09T13:43:51.966Z,19.00
2023-05-09T13:46:37.370Z,18.20
2023-05-09T13:49:23.112Z,18.38
2023-05-09T13:52:08.273Z,18.46
2023-05-09T13:54:53.810Z,18.65
2023-05-09T13:57:39.138Z,18.81
2023-05-09T14:00:24.247Z,18.96
2023-05-09T14:03:09.118Z,19.08
2023-05-09T14:06:02.091Z,19.02
2023-05-09T14:08:47.667Z,19.24
2023-05-09T14:11:33.205Z,19.50
2023-05-09T14:14:24.389Z,19.56
2023-05-09T14:17:09.613Z,19.74
2023-05-09T14:19:55.013Z,19.62
2023-05-09T14:22:39.924Z,19.49
2023-05-09T14:25:25.194Z,18.69
2023-05-09T14:28:10.156Z,18.61
2023-05-09T14:30:55.621Z,18.52
2023-05-09T14:33:40.935Z,18.59
2023-05-09T14:36:28.585Z,18.68
2023-05-09T14:39:13.927Z,18.83
2023-05-09T14:41:59.421Z,19.02
2023-05-09T14:44:44.864Z,19.02
2023-05-09T14:47:30.508Z,18.85
2023-05-09T14:50:16.053Z,18.91
2023-05-09T14:53:01.725Z,19.24
2023-05-09T14:55:47.139Z,19.47
2023-05-09T14:58:32.525Z,19.54
2023-05-09T15:01:17.922Z,19.61
2023-05-09T15:04:03.345Z,19.64
2023-05-09T15:06:48.920Z,19.55
2023-05-09T15:09:35.406Z,19.70
2023-05-09T15:12:20.581Z,19.85
2023-05-09T15:15:23.910Z,19.82
2023-05-09T15:18:09.164Z,19.94
2023-05-09T15:20:55.427Z,19.92
2023-05-09T15:23:40.565Z,19.75
2023-05-09T15:26:25.935Z,19.69
2023-05-09T15:29:10.950Z,19.59
2023-05-09T15:31:56.300Z,19.58
2023-05-09T15:34:41.620Z,19.62
2023-05-09T15:37:27.075Z,19.58
2023-05-09T15:40:12.508Z,19.65
2023-05-09T15:42:57.613Z,19.57
2023-05-09T15:45:42.923Z,19.58
2023-05-09T15:48:28.250Z,19.65
2023-05-09T15:51:13.663Z,19.60
2023-05-09T15:53:58.960Z,19.61
2023-05-09T15:56:44.359Z,19.63
2023-05-09T15:59:29.719Z,19.64
2023-05-09T16:02:15.373Z,19.65
2023-05-09T16:05:00.609Z,19.60
2023-05-09T16:07:46.925Z,19.54
2023-05-09T16:10:33.210Z,19.39
2023-05-09T16:13:18.421Z,19.31
2023-05-09T16:16:04.388Z,18.78
2023-05-09T16:18:49.796Z,18.40
2023-05-09T16:21:36.982Z,18.21
2023-05-09T16:24:22.193Z,18.18
2023-05-09T16:27:07.572Z,18.11
2023-05-09T16:29:52.515Z,18.16
2023-05-09T16:32:37.923Z,18.07
2023-05-09T16:35:23.317Z,18.10
2023-05-09T16:38:08.744Z,18.02
2023-05-09T16:40:53.986Z,18.05
2023-05-09T16:43:39.415Z,18.05
2023-05-09T16:46:24.692Z,18.09
2023-05-09T16:49:09.745Z,18.05
2023-05-09T16:51:55.041Z,17.89
2023-05-09T16:54:39.838Z,17.77
2023-05-09T16:57:25.082Z,17.68
2023-05-09T17:00:10.876Z,17.67
2023-05-09T17:02:56.631Z,17.69
2023-05-09T17:05:41.666Z,17.66
2023-05-09T17:08:26.539Z,17.50
2023-05-09T17:11:12.091Z,17.34
2023-05-09T17:13:57.337Z,16.96
2023-05-09T17:16:42.706Z,16.78
2023-05-09T17:19:27.779Z,16.84
2023-05-09T17:22:13.149Z,17.01
2023-05-09T17:24:58.633Z,17.02
2023-05-09T17:27:43.396Z,17.13
2023-05-09T17:30:28.425Z,17.05
2023-05-09T17:33:13.799Z,16.81
2023-05-09T17:35:59.174Z,16.85
2023-05-09T17:38:44.658Z,16.90
2023-05-09T17:41:30.565Z,16.85
2023-05-09T17:44:15.687Z,16.85
2023-05-09T17:47:00.938Z,16.84
2023-05-09T17:49:46.876Z,16.77
2023-05-09T17:52:37.847Z,16.46
2023-05-09T17:55:22.649Z,16.38
2023-05-09T17:58:08.107Z,16.35
2023-05-09T18:00:53.411Z,16.35
2023-05-09T18:03:40.052Z,16.39
2023-05-09T18:06:25.107Z,16.47
2023-05-09T18:09:16.612Z,16.37
2023-05-09T18:12:03.067Z,16.32
2023-05-09T18:14:47.902Z,16.35
2023-05-09T18:17:33.220Z,16.48
2023-05-09T18:20:18.839Z,16.57
2023-05-09T18:23:04.231Z,16.69
2023-05-09T18:25:49.576Z,16.60
2023-05-09T18:28:34.804Z,16.65
2023-05-09T18:31:19.964Z,16.70
2023-05-09T18:34:05.338Z,16.65
2023-05-09T18:36:50.714Z,16.61
2023-05-09T18:39:35.568Z,16.63
2023-05-09T18:42:21.227Z,16.70
2023-05-09T18:45:08.112Z,16.57
2023-05-09T18:47:53.067Z,16.52
2023-05-09T18:50:37.953Z,16.64
2023-05-09T18:53:23.526Z,16.76
2023-05-09T18:56:09.052Z,16.85
2023-05-09T18:58:54.020Z,16.65
2023-05-09T19:01:38.879Z,16.70
2023-05-09T19:04:23.869Z,16.63
2023-05-09T19:07:15.483Z,16.42
2023-05-09T19:10:00.869Z,16.41
2023-05-09T19:12:46.264Z,16.27
2023-05-09T19:15:31.364Z,16.21
2023-05-09T19:18:16.231Z,16.20
2023-05-09T19:21:01.289Z,16.21
2023-05-09T19:23:46.643Z,16.21
2023-05-09T19:26:32.054Z,16.14
2023-05-09T19:29:17.333Z,16.16
2023-05-09T19:32:02.704Z,16.00
2023-05-09T19:34:48.188Z,15.89
2023-05-09T19:37:33.140Z,15.86
2023-05-09T19:40:18.087Z,15.81
2023-05-09T19:43:03.607Z,15.77
2023-05-09T19:45:48.828Z,15.69
2023-05-09T19:48:34.076Z,15.61
2023-05-09T19:51:19.093Z,15.65
2023-05-09T19:54:04.761Z,15.73
2023-05-09T19:56:50.010Z,15.75
2023-05-09T19:59:34.944Z,15.66
2023-05-09T20:02:19.936Z,15.36
2023-05-09T20:05:05.709Z,15.25
2023-05-09T20:07:51.072Z,15.35
2023-05-09T20:10:36.493Z,15.38
2023-05-09T20:13:21.475Z,15.47
2023-05-09T20:16:06.813Z,15.40
2023-05-09T20:18:52.224Z,15.38
2023-05-09T20:21:37.603Z,15.42
2023-05-09T20:24:23.020Z,15.39
2023-05-09T20:27:08.430Z,15.43
2023-05-09T20:29:53.841Z,15.33
2023-05-09T20:32:39.352Z,15.53
2023-05-09T20:35:24.871Z,15.39
2023-05-09T20:38:10.915Z,15.46
2023-05-09T20:40:55.934Z,15.46
2023-05-09T20:43:41.393Z,15.49
2023-05-09T20:46:26.694Z,15.47
2023-05-09T20:49:11.899Z,15.37
2023-05-09T20:51:57.127Z,15.27
2023-05-09T20:54:42.480Z,15.30
2023-05-09T20:57:27.531Z,15.13
2023-05-09T21:00:13.483Z,15.30
2023-05-09T21:02:59.006Z,15.28
2023-05-09T21:05:44.096Z,15.14
2023-05-09T21:08:28.992Z,15.42
2023-05-09T21:11:13.861Z,15.31
2023-05-09T21:13:59.297Z,15.04
2023-05-09T21:16:44.715Z,15.14
2023-05-09T21:19:29.944Z,15.27
2023-05-09T21:22:15.445Z,15.35
2023-05-09T21:25:00.300Z,15.28
2023-05-09T21:27:45.799Z,15.20
2023-05-09T21:30:30.801Z,15.01
2023-05-09T21:33:15.929Z,14.99
2023-05-09T21:36:01.431Z,15.10
2023-05-09T21:38:46.564Z,15.04
2023-05-09T21:41:32.270Z,15.02
2023-05-09T21:44:17.361Z,14.91
2023-05-09T21:47:02.652Z,15.06
2023-05-09T21:49:47.815Z,15.04
2023-05-09T21:52:33.209Z,15.05
2023-05-09T21:55:18.725Z,14.96
2023-05-09T21:58:04.048Z,14.93
2023-05-09T22:00:49.556Z,14.82
2023-05-09T22:03:35.188Z,15.05
2023-05-09T22:06:20.154Z,15.15
2023-05-09T22:09:05.557Z,14.91
2023-05-09T22:11:52.050Z,14.80
2023-05-09T22:14:45.344Z,14.77
2023-05-09T22:17:40.800Z,15.03
2023-05-09T22:20:26.300Z,14.85
2023-05-09T22:23:11.988Z,14.92
2023-05-09T22:25:58.170Z,14.97
2023-05-09T22:28:43.277Z,14.97
2023-05-09T22:31:28.820Z,14.98
2023-05-09T22:34:14.064Z,14.85
2023-05-09T22:36:59.566Z,14.72
2023-05-09T22:39:44.866Z,14.83
2023-05-09T22:42:30.409Z,14.92
2023-05-09T22:45:15.655Z,14.96
2023-05-09T22:48:00.913Z,14.85
2023-05-09T22:50:46.528Z,14.87
2023-05-09T22:53:31.799Z,14.80
2023-05-09T22:56:17.184Z,15.03
2023-05-09T22:59:02.081Z,14.82
2023-05-09T23:01:47.395Z,14.80
2023-05-09T23:04:32.734Z,14.69
2023-05-09T23:07:17.601Z,14.90
2023-05-09T23:10:03.574Z,14.70
2023-05-09T23:12:48.598Z,14.80
2023-05-09T23:15:33.589Z,14.83
2023-05-09T23:18:19.018Z,14.93
2023-05-09T23:21:05.161Z,14.77
2023-05-09T23:23:50.427Z,14.63
2023-05-09T23:26:35.465Z,14.71
2023-05-09T23:29:20.741Z,14.74
2023-05-09T23:32:05.452Z,14.69
2023-05-09T23:34:50.807Z,14.73
2023-05-09T23:37:36.090Z,14.70
2023-05-09T23:40:21.288Z,14.67
2023-05-09T23:43:06.690Z,14.62
2023-05-09T23:45:52.138Z,14.71
2023-05-09T23:48:37.574Z,14.62
2023-05-09T23:51:23.333Z,14.65
2023-05-09T23:54:08.670Z,14.59
2023-05-09T23:56:53.577Z,14.69
2023-05-09T23:59:38.497Z,14.59
